Pays
Station

 

Conditions  météo  pour  Rivera  -  Uruguay    Uruguay

  
    
 
 

METAR pour Rivera :

SURV 300530Z 3006/3106 12005KT 9999 FEW025 TX29/3018Z TN17/3010Z PROB40 TEMPO 3006/3012 3000 BR BKN008 PROB30 TEMPO 3008/3014 0800 BCFG BKN003 BECMG 3014/3016 BKN020

 

Voici le bulletin pour Rivera - Uruguay.
 
Le bulletin a été fait il y a 423 heures et 34 minutes, à 05:30 UTC .
Le vent soufflait à la vitesse de 2.6 mètres par seconde de Est/Sud-est (120°).
 
Il y avait 1 à 2/8ème de nébulosité à une hauteur de 762 mètres.
 
La visibilité globale était de supérieure à 10 kilomètres.
 

 
 
 

Pays :   A   B   C   D   E   F   G   H   I   J   K   L   M   N   O   P   Q   R   S   T   U   V   W   Y   Z

 

Partenaires :  Info Météo avec Met'info
Météo Marine avec MeteoMarine.net
Infos Site  |  Infos Légales  |  Crédits  |  Confidentialité
Contactez-nous  |  Ajouter aux favoris
© 2013-2018 METAR - Tous droits réservés